sensor_id;sensor_type;location;lat;lon;timestamp;pressure;altitude;pressure_sealevel;temperature;humidity
29461;BME280;16428;47.836;35.106;2023-04-21T00:00:12;100210.28;;;13.71;100.00
29461;BME280;16428;47.836;35.106;2023-04-21T00:02:41;100199.03;;;13.61;100.00
29461;BME280;16428;47.836;35.106;2023-04-21T00:05:09;100196.97;;;13.63;100.00
29461;BME280;16428;47.836;35.106;2023-04-21T00:07:39;100205.09;;;13.50;100.00
29461;BME280;16428;47.836;35.106;2023-04-21T00:10:09;100198.44;;;13.46;100.00
29461;BME280;16428;47.836;35.106;2023-04-21T00:12:37;100196.56;;;13.46;100.00
29461;BME280;16428;47.836;35.106;2023-04-21T00:15:05;100200.53;;;13.44;100.00
29461;BME280;16428;47.836;35.106;2023-04-21T00:17:33;100199.28;;;13.46;100.00
29461;BME280;16428;47.836;35.106;2023-04-21T00:20:00;100204.69;;;13.53;100.00
29461;BME280;16428;47.836;35.106;2023-04-21T00:22:28;100202.78;;;13.66;100.00
29461;BME280;16428;47.836;35.106;2023-04-21T00:24:56;100195.13;;;13.57;100.00
29461;BME280;16428;47.836;35.106;2023-04-21T00:27:24;100200.72;;;13.62;100.00
29461;BME280;16428;47.836;35.106;2023-04-21T00:29:51;100199.69;;;13.56;100.00
29461;BME280;16428;47.836;35.106;2023-04-21T00:32:19;100201.97;;;13.66;100.00
29461;BME280;16428;47.836;35.106;2023-04-21T00:34:46;100204.44;;;13.61;100.00
29461;BME280;16428;47.836;35.106;2023-04-21T00:37:14;100205.72;;;13.58;100.00
29461;BME280;16428;47.836;35.106;2023-04-21T00:39:41;100206.75;;;13.51;100.00
29461;BME280;16428;47.836;35.106;2023-04-21T00:42:09;100199.69;;;13.50;100.00
29461;BME280;16428;47.836;35.106;2023-04-21T00:44:39;100197.81;;;13.30;100.00
29461;BME280;16428;47.836;35.106;2023-04-21T00:47:06;100196.38;;;13.21;100.00
29461;BME280;16428;47.836;35.106;2023-04-21T00:49:34;100197.63;;;13.25;100.00
29461;BME280;16428;47.836;35.106;2023-04-21T00:52:03;100194.25;;;13.10;100.00
29461;BME280;16428;47.836;35.106;2023-04-21T00:54:34;100203.84;;;13.19;100.00
29461;BME280;16428;47.836;35.106;2023-04-21T00:57:02;100202.81;;;13.20;100.00
29461;BME280;16428;47.836;35.106;2023-04-21T00:59:30;100203.84;;;13.19;100.00
29461;BME280;16428;47.836;35.106;2023-04-21T01:01:58;100196.13;;;13.10;100.00
29461;BME280;16428;47.836;35.106;2023-04-21T01:04:25;100194.94;;;13.25;100.00
29461;BME280;16428;47.836;35.106;2023-04-21T01:06:54;100191.78;;;13.15;100.00
29461;BME280;16428;47.836;35.106;2023-04-21T01:09:21;100193.44;;;13.16;100.00
29461;BME280;16428;47.836;35.106;2023-04-21T01:12:07;100192.84;;;13.27;100.00
29461;BME280;16428;47.836;35.106;2023-04-21T01:14:37;100187.25;;;13.22;100.00
29461;BME280;16428;47.836;35.106;2023-04-21T01:17:05;100187.22;;;13.09;100.00
29461;BME280;16428;47.836;35.106;2023-04-21T01:19:37;100184.72;;;13.08;100.00
29461;BME280;16428;47.836;35.106;2023-04-21T01:22:10;100185.53;;;13.08;100.00
29461;BME280;16428;47.836;35.106;2023-04-21T01:24:43;100178.09;;;13.17;100.00
29461;BME280;16428;47.836;35.106;2023-04-21T01:27:16;100176.69;;;13.27;100.00
29461;BME280;16428;47.836;35.106;2023-04-21T01:29:49;100178.53;;;13.40;100.00
29461;BME280;16428;47.836;35.106;2023-04-21T01:32:21;100172.28;;;13.53;100.00
29461;BME280;16428;47.836;35.106;2023-04-21T01:34:51;100172.28;;;13.46;100.00
29461;BME280;16428;47.836;35.106;2023-04-21T01:37:22;100171.06;;;13.42;100.00
29461;BME280;16428;47.836;35.106;2023-04-21T01:39:53;100166.50;;;13.43;100.00
29461;BME280;16428;47.836;35.106;2023-04-21T01:42:23;100169.59;;;13.53;100.00
29461;BME280;16428;47.836;35.106;2023-04-21T01:44:51;100166.47;;;13.49;100.00
29461;BME280;16428;47.836;35.106;2023-04-21T01:47:20;100172.09;;;13.48;100.00
29461;BME280;16428;47.836;35.106;2023-04-21T01:49:48;100168.34;;;13.35;100.00
29461;BME280;16428;47.836;35.106;2023-04-21T01:52:16;100172.72;;;13.36;100.00
29461;BME280;16428;47.836;35.106;2023-04-21T01:54:43;100162.75;;;13.30;100.00
29461;BME280;16428;47.836;35.106;2023-04-21T01:57:11;100160.69;;;13.32;100.00
29461;BME280;16428;47.836;35.106;2023-04-21T01:59:38;100152.19;;;13.35;100.00
29461;BME280;16428;47.836;35.106;2023-04-21T02:02:06;100158.59;;;13.34;100.00
29461;BME280;16428;47.836;35.106;2023-04-21T02:04:34;100155.69;;;13.36;100.00
29461;BME280;16428;47.836;35.106;2023-04-21T02:07:02;100157.78;;;13.41;100.00
29461;BME280;16428;47.836;35.106;2023-04-21T02:09:29;100155.09;;;13.27;100.00
29461;BME280;16428;47.836;35.106;2023-04-21T02:11:57;100142.81;;;13.12;100.00
29461;BME280;16428;47.836;35.106;2023-04-21T02:14:25;100147.38;;;12.98;100.00
29461;BME280;16428;47.836;35.106;2023-04-21T02:16:52;100151.91;;;12.84;100.00
29461;BME280;16428;47.836;35.106;2023-04-21T02:19:23;100150.25;;;12.83;100.00
29461;BME280;16428;47.836;35.106;2023-04-21T02:21:50;100143.63;;;12.79;100.00
29461;BME280;16428;47.836;35.106;2023-04-21T02:24:18;100143.19;;;12.76;100.00
29461;BME280;16428;47.836;35.106;2023-04-21T02:26:45;100141.16;;;12.91;100.00
29461;BME280;16428;47.836;35.106;2023-04-21T02:29:12;100144.88;;;12.77;100.00
29461;BME280;16428;47.836;35.106;2023-04-21T02:31:40;100143.41;;;12.67;100.00
29461;BME280;16428;47.836;35.106;2023-04-21T02:34:27;100150.06;;;12.78;100.00
29461;BME280;16428;47.836;35.106;2023-04-21T02:36:54;100146.53;;;12.78;100.00
29461;BME280;16428;47.836;35.106;2023-04-21T02:39:22;100151.50;;;12.81;100.00
29461;BME280;16428;47.836;35.106;2023-04-21T02:41:49;100149.84;;;12.86;100.00
29461;BME280;16428;47.836;35.106;2023-04-21T02:44:17;100140.28;;;12.84;100.00
29461;BME280;16428;47.836;35.106;2023-04-21T02:46:44;100140.53;;;12.89;100.00
29461;BME280;16428;47.836;35.106;2023-04-21T02:49:11;100143.63;;;12.92;100.00
29461;BME280;16428;47.836;35.106;2023-04-21T02:51:39;100144.88;;;12.90;100.00
29461;BME280;16428;47.836;35.106;2023-04-21T02:54:07;100141.78;;;12.93;100.00
29461;BME280;16428;47.836;35.106;2023-04-21T02:56:34;100150.28;;;12.96;100.00
29461;BME280;16428;47.836;35.106;2023-04-21T02:59:01;100140.94;;;12.79;100.00
29461;BME280;16428;47.836;35.106;2023-04-21T03:01:29;100143.63;;;12.86;100.00
29461;BME280;16428;47.836;35.106;2023-04-21T03:03:56;100146.13;;;12.94;100.00
29461;BME280;16428;47.836;35.106;2023-04-21T03:06:24;100149.00;;;12.99;100.00
29461;BME280;16428;47.836;35.106;2023-04-21T03:08:51;100145.28;;;13.00;100.00
29461;BME280;16428;47.836;35.106;2023-04-21T03:11:19;100149.88;;;13.06;100.00
29461;BME280;16428;47.836;35.106;2023-04-21T03:13:47;100151.53;;;12.94;100.00
29461;BME280;16428;47.836;35.106;2023-04-21T03:16:14;100152.78;;;12.98;100.00
29461;BME280;16428;47.836;35.106;2023-04-21T03:18:42;100147.38;;;12.98;100.00
29461;BME280;16428;47.836;35.106;2023-04-21T03:21:09;100147.38;;;12.98;100.00
29461;BME280;16428;47.836;35.106;2023-04-21T03:23:37;100145.94;;;12.95;100.00
29461;BME280;16428;47.836;35.106;2023-04-21T03:26:07;100147.97;;;12.87;100.00
29461;BME280;16428;47.836;35.106;2023-04-21T03:28:35;100143.22;;;13.02;100.00
29461;BME280;16428;47.836;35.106;2023-04-21T03:31:02;100147.97;;;12.87;100.00
29461;BME280;16428;47.836;35.106;2023-04-21T03:33:30;100143.63;;;12.86;100.00
29461;BME280;16428;47.836;35.106;2023-04-21T03:35:57;100149.44;;;12.89;100.00
29461;BME280;16428;47.836;35.106;2023-04-21T03:38:27;100144.69;;;12.98;100.00
29461;BME280;16428;47.836;35.106;2023-04-21T03:40:55;100150.09;;;12.98;100.00
29461;BME280;16428;47.836;35.106;2023-04-21T03:43:22;100147.38;;;12.98;100.00
29461;BME280;16428;47.836;35.106;2023-04-21T03:45:49;100151.53;;;13.07;100.00
29461;BME280;16428;47.836;35.106;2023-04-21T03:48:17;100150.69;;;13.00;100.00
29461;BME280;16428;47.836;35.106;2023-04-21T03:50:44;100146.53;;;12.91;100.00
29461;BME280;16428;47.836;35.106;2023-04-21T03:53:12;100149.22;;;12.84;100.00
29461;BME280;16428;47.836;35.106;2023-04-21T03:55:39;100154.00;;;12.95;100.00
29461;BME280;16428;47.836;35.106;2023-04-21T03:58:07;100156.69;;;12.89;100.00
29461;BME280;16428;47.836;35.106;2023-04-21T04:00:34;100155.25;;;12.93;100.00
29461;BME280;16428;47.836;35.106;2023-04-21T04:03:02;100166.44;;;13.03;100.00
29461;BME280;16428;47.836;35.106;2023-04-21T04:05:30;100166.44;;;13.03;100.00
29461;BME280;16428;47.836;35.106;2023-04-21T04:07:58;100166.88;;;13.13;100.00
29461;BME280;16428;47.836;35.106;2023-04-21T04:10:25;100159.81;;;12.99;100.00
29461;BME280;16428;47.836;35.106;2023-04-21T04:12:53;100165.63;;;12.96;100.00
29461;BME280;16428;47.836;35.106;2023-04-21T04:15:21;100152.34;;;12.88;100.00
29461;BME280;16428;47.836;35.106;2023-04-21T04:17:49;100163.56;;;12.98;100.00
29461;BME280;16428;47.836;35.106;2023-04-21T04:20:17;100161.91;;;12.97;100.00
29461;BME280;16428;47.836;35.106;2023-04-21T04:22:44;100156.69;;;12.89;100.00
29461;BME280;16428;47.836;35.106;2023-04-21T04:25:12;100159.38;;;12.89;100.00
29461;BME280;16428;47.836;35.106;2023-04-21T04:27:42;100162.72;;;12.91;100.00
29461;BME280;16428;47.836;35.106;2023-04-21T04:30:11;100161.47;;;12.93;100.00
29461;BME280;16428;47.836;35.106;2023-04-21T04:32:39;100162.28;;;13.00;100.00
29461;BME280;16428;47.836;35.106;2023-04-21T04:35:09;100165.22;;;13.12;100.00
29461;BME280;16428;47.836;35.106;2023-04-21T04:37:38;100159.41;;;13.09;100.00
29461;BME280;16428;47.836;35.106;2023-04-21T04:40:06;100160.25;;;13.09;100.00
29461;BME280;16428;47.836;35.106;2023-04-21T04:42:36;100153.59;;;13.05;100.00
29461;BME280;16428;47.836;35.106;2023-04-21T04:45:06;100156.50;;;12.97;100.00
29461;BME280;16428;47.836;35.106;2023-04-21T04:47:34;100153.38;;;13.00;100.00
29461;BME280;16428;47.836;35.106;2023-04-21T04:50:03;100156.50;;;13.03;100.00
29461;BME280;16428;47.836;35.106;2023-04-21T04:52:31;100169.34;;;13.01;100.00
29461;BME280;16428;47.836;35.106;2023-04-21T04:54:58;100161.50;;;13.13;100.00
29461;BME280;16428;47.836;35.106;2023-04-21T04:57:25;100158.81;;;13.13;100.00
29461;BME280;16428;47.836;35.106;2023-04-21T04:59:55;100160.88;;;13.11;100.00
29461;BME280;16428;47.836;35.106;2023-04-21T05:02:22;100164.00;;;13.21;100.00
29461;BME280;16428;47.836;35.106;2023-04-21T05:04:50;100169.63;;;13.26;100.00
29461;BME280;16428;47.836;35.106;2023-04-21T05:07:18;100172.31;;;13.26;100.00
29461;BME280;16428;47.836;35.106;2023-04-21T05:09:45;100168.16;;;13.17;100.00
29461;BME280;16428;47.836;35.106;2023-04-21T05:12:13;100168.16;;;13.24;100.00
29461;BME280;16428;47.836;35.106;2023-04-21T05:14:41;100159.03;;;13.18;100.00
29461;BME280;16428;47.836;35.106;2023-04-21T05:17:08;100163.38;;;13.19;100.00
29461;BME280;16428;47.836;35.106;2023-04-21T05:19:36;100159.44;;;13.15;100.00
29461;BME280;16428;47.836;35.106;2023-04-21T05:22:04;100165.63;;;12.96;100.00
29461;BME280;16428;47.836;35.106;2023-04-21T05:24:34;100163.16;;;13.08;100.00
29461;BME280;16428;47.836;35.106;2023-04-21T05:27:02;100162.75;;;13.17;100.00
29461;BME280;16428;47.836;35.106;2023-04-21T05:29:29;100166.09;;;13.26;100.00
29461;BME280;16428;47.836;35.106;2023-04-21T05:31:57;100155.28;;;13.46;100.00
29461;BME280;16428;47.836;35.106;2023-04-21T05:34:24;100157.78;;;13.41;100.00
29461;BME280;16428;47.836;35.106;2023-04-21T05:36:52;100166.28;;;13.57;100.00
29461;BME280;16428;47.836;35.106;2023-04-21T05:39:19;100166.47;;;13.56;100.00
29461;BME280;16428;47.836;35.106;2023-04-21T05:41:47;100169.38;;;13.67;100.00
29461;BME280;16428;47.836;35.106;2023-04-21T05:44:17;100168.13;;;13.63;100.00
29461;BME280;16428;47.836;35.106;2023-04-21T05:46:45;100162.56;;;13.25;100.00
29461;BME280;16428;47.836;35.106;2023-04-21T05:49:13;100157.78;;;13.21;100.00
29461;BME280;16428;47.836;35.106;2023-04-21T05:51:40;100154.88;;;13.22;100.00
29461;BME280;16428;47.836;35.106;2023-04-21T05:54:08;100153.00;;;13.29;100.00
29461;BME280;16428;47.836;35.106;2023-04-21T05:56:35;100155.50;;;13.44;100.00
29461;BME280;16428;47.836;35.106;2023-04-21T05:59:03;100155.88;;;13.61;100.00
29461;BME280;16428;47.836;35.106;2023-04-21T06:01:30;100156.50;;;13.69;100.00
29461;BME280;16428;47.836;35.106;2023-04-21T06:03:57;100159.19;;;13.63;100.00
29461;BME280;16428;47.836;35.106;2023-04-21T06:06:25;100155.66;;;13.62;100.00
29461;BME280;16428;47.836;35.106;2023-04-21T06:08:54;100155.66;;;13.69;100.00
29461;BME280;16428;47.836;35.106;2023-04-21T06:11:21;100151.94;;;13.70;100.00
29461;BME280;16428;47.836;35.106;2023-04-21T06:13:50;100152.94;;;13.76;100.00
29461;BME280;16428;47.836;35.106;2023-04-21T06:16:19;100148.59;;;13.68;100.00
29461;BME280;16428;47.836;35.106;2023-04-21T06:18:47;100158.94;;;13.84;100.00
29461;BME280;16428;47.836;35.106;2023-04-21T06:21:14;100164.56;;;13.83;100.00
29461;BME280;16428;47.836;35.106;2023-04-21T06:23:42;100161.41;;;13.92;100.00
29461;BME280;16428;47.836;35.106;2023-04-21T06:26:09;100166.22;;;13.84;100.00
29461;BME280;16428;47.836;35.106;2023-04-21T06:28:37;100163.94;;;13.87;100.00
29461;BME280;16428;47.836;35.106;2023-04-21T06:31:05;100162.69;;;13.83;100.00
29461;BME280;16428;47.836;35.106;2023-04-21T06:33:35;100169.72;;;13.97;100.00
29461;BME280;16428;47.836;35.106;2023-04-21T06:36:03;100172.63;;;14.02;100.00
29461;BME280;16428;47.836;35.106;2023-04-21T06:38:30;100166.44;;;13.89;100.00
29461;BME280;16428;47.836;35.106;2023-04-21T06:40:58;100165.56;;;13.95;100.00
29461;BME280;16428;47.836;35.106;2023-04-21T06:43:25;100171.38;;;14.05;100.00
29461;BME280;16428;47.836;35.106;2023-04-21T06:45:53;100166.66;;;13.74;100.00
29461;BME280;16428;47.836;35.106;2023-04-21T06:48:20;100164.31;;;14.04;100.00
29461;BME280;16428;47.836;35.106;2023-04-21T06:50:48;100164.47;;;14.16;100.00
29461;BME280;16428;47.836;35.106;2023-04-21T06:53:15;100164.06;;;14.05;100.00
29461;BME280;16428;47.836;35.106;2023-04-21T06:55:44;100158.09;;;13.90;100.00
29461;BME280;16428;47.836;35.106;2023-04-21T06:58:12;100165.91;;;14.18;100.00
29461;BME280;16428;47.836;35.106;2023-04-21T07:00:39;100165.75;;;14.00;100.00
29461;BME280;16428;47.836;35.106;2023-04-21T07:03:07;100165.56;;;14.01;100.00
29461;BME280;16428;47.836;35.106;2023-04-21T07:05:35;100162.03;;;13.94;100.00
29461;BME280;16428;47.836;35.106;2023-04-21T07:08:03;100162.91;;;13.88;100.00
29461;BME280;16428;47.836;35.106;2023-04-21T07:10:30;100162.09;;;13.68;100.00
29461;BME280;16428;47.836;35.106;2023-04-21T07:12:58;100159.00;;;13.58;100.00
29461;BME280;16428;47.836;35.106;2023-04-21T07:15:25;100163.97;;;13.61;100.00
29461;BME280;16428;47.836;35.106;2023-04-21T07:17:53;100158.16;;;13.70;100.00
29461;BME280;16428;47.836;35.106;2023-04-21T07:20:21;100153.16;;;13.67;100.00
29461;BME280;16428;47.836;35.106;2023-04-21T07:22:48;100168.94;;;13.70;100.00
29461;BME280;16428;47.836;35.106;2023-04-21T07:25:16;100160.44;;;13.73;100.00
29461;BME280;16428;47.836;35.106;2023-04-21T07:27:43;100156.53;;;13.50;100.00
29461;BME280;16428;47.836;35.106;2023-04-21T07:30:11;100146.97;;;13.54;100.00
29461;BME280;16428;47.836;35.106;2023-04-21T07:32:38;100152.38;;;13.41;100.00
29461;BME280;16428;47.836;35.106;2023-04-21T07:35:06;100158.97;;;13.64;100.00
29461;BME280;16428;47.836;35.106;2023-04-21T07:37:34;100157.75;;;13.60;100.00
29461;BME280;16428;47.836;35.106;2023-04-21T07:40:01;100159.41;;;13.61;100.00
29461;BME280;16428;47.836;35.106;2023-04-21T07:42:30;100162.69;;;13.77;100.00
29461;BME280;16428;47.836;35.106;2023-04-21T07:44:57;100163.97;;;13.67;100.00
29461;BME280;16428;47.836;35.106;2023-04-21T07:47:27;100164.38;;;13.71;100.00
29461;BME280;16428;47.836;35.106;2023-04-21T07:49:55;100172.47;;;13.71;100.00
29461;BME280;16428;47.836;35.106;2023-04-21T07:52:22;100170.41;;;13.73;100.00
29461;BME280;16428;47.836;35.106;2023-04-21T07:54:50;100166.88;;;13.72;100.00
29461;BME280;16428;47.836;35.106;2023-04-21T07:57:18;100171.06;;;13.55;100.00
29461;BME280;16428;47.836;35.106;2023-04-21T07:59:45;100171.03;;;13.62;100.00
29461;BME280;16428;47.836;35.106;2023-04-21T08:02:13;100174.34;;;13.64;100.00
29461;BME280;16428;47.836;35.106;2023-04-21T08:04:40;100169.38;;;13.67;100.00
29461;BME280;16428;47.836;35.106;2023-04-21T08:07:08;100163.97;;;13.61;100.00
29461;BME280;16428;47.836;35.106;2023-04-21T08:09:36;100166.03;;;13.72;100.00
29461;BME280;16428;47.836;35.106;2023-04-21T08:12:04;100167.50;;;13.75;100.00
29461;BME280;16428;47.836;35.106;2023-04-21T08:14:31;100171.00;;;13.75;100.00
29461;BME280;16428;47.836;35.106;2023-04-21T08:16:58;100171.00;;;13.75;100.00
29461;BME280;16428;47.836;35.106;2023-04-21T08:19:26;100163.59;;;13.57;100.00
29461;BME280;16428;47.836;35.106;2023-04-21T08:21:54;100164.59;;;13.69;100.00
29461;BME280;16428;47.836;35.106;2023-04-21T08:24:21;100162.75;;;13.50;100.00
29461;BME280;16428;47.836;35.106;2023-04-21T08:26:49;100166.03;;;13.72;100.00
29461;BME280;16428;47.836;35.106;2023-04-21T08:29:17;100154.44;;;13.58;100.00
29461;BME280;16428;47.836;35.106;2023-04-21T08:31:44;100161.06;;;13.69;100.00
29461;BME280;16428;47.836;35.106;2023-04-21T08:34:12;100160.19;;;13.75;100.00
29461;BME280;16428;47.836;35.106;2023-04-21T08:36:40;100162.31;;;13.66;100.00
29461;BME280;16428;47.836;35.106;2023-04-21T08:39:09;100156.88;;;13.80;100.00
29461;BME280;16428;47.836;35.106;2023-04-21T08:41:38;100155.16;;;13.98;100.00
29461;BME280;16428;47.836;35.106;2023-04-21T08:44:10;100155.59;;;13.95;100.00
29461;BME280;16428;47.836;35.106;2023-04-21T08:46:38;100165.34;;;13.96;100.00
29461;BME280;16428;47.836;35.106;2023-04-21T08:49:08;100158.53;;;13.87;100.00
29461;BME280;16428;47.836;35.106;2023-04-21T08:51:36;100157.34;;;14.21;100.00
29461;BME280;16428;47.836;35.106;2023-04-21T08:54:04;100163.47;;;14.03;100.00
29461;BME280;16428;47.836;35.106;2023-04-21T08:56:32;100167.22;;;14.02;100.00
29461;BME280;16428;47.836;35.106;2023-04-21T08:59:00;100162.22;;;13.99;100.00
29461;BME280;16428;47.836;35.106;2023-04-21T09:01:27;100166.38;;;13.95;100.00
29461;BME280;16428;47.836;35.106;2023-04-21T09:04:15;100168.13;;;13.70;100.00
29461;BME280;16428;47.836;35.106;2023-04-21T09:06:43;100169.38;;;13.74;100.00
29461;BME280;16428;47.836;35.106;2023-04-21T09:09:12;100168.69;;;13.92;100.00
29461;BME280;16428;47.836;35.106;2023-04-21T09:11:39;100167.25;;;13.76;100.00
29461;BME280;16428;47.836;35.106;2023-04-21T09:14:07;100160.19;;;13.75;100.00
29461;BME280;16428;47.836;35.106;2023-04-21T09:16:35;100170.78;;;13.83;100.00
29461;BME280;16428;47.836;35.106;2023-04-21T09:19:12;100163.53;;;13.84;100.00
29461;BME280;16428;47.836;35.106;2023-04-21T09:21:43;100166.84;;;13.79;100.00
29461;BME280;16428;47.836;35.106;2023-04-21T09:24:10;100163.72;;;13.82;100.00
29461;BME280;16428;47.836;35.106;2023-04-21T09:26:41;100158.38;;;13.69;100.00
29461;BME280;16428;47.836;35.106;2023-04-21T09:29:08;100162.69;;;13.77;100.00
29461;BME280;16428;47.836;35.106;2023-04-21T09:31:36;100158.53;;;13.87;100.00
29461;BME280;16428;47.836;35.106;2023-04-21T09:34:17;100163.88;;;14.00;100.00
29461;BME280;16428;47.836;35.106;2023-04-21T09:36:45;100155.00;;;13.87;100.00
29461;BME280;16428;47.836;35.106;2023-04-21T09:39:13;100162.69;;;13.83;100.00
29461;BME280;16428;47.836;35.106;2023-04-21T09:42:01;100155.00;;;13.80;100.00
29461;BME280;16428;47.836;35.106;2023-04-21T09:44:28;100164.56;;;13.89;100.00
29461;BME280;16428;47.836;35.106;2023-04-21T09:47:09;100173.03;;;13.99;100.00
29461;BME280;16428;47.836;35.106;2023-04-21T09:49:38;100168.72;;;13.85;100.00
29461;BME280;16428;47.836;35.106;2023-04-21T09:52:13;100162.84;;;14.01;100.00
29461;BME280;16428;47.836;35.106;2023-04-21T09:54:49;100166.84;;;13.86;100.00
29461;BME280;16428;47.836;35.106;2023-04-21T09:57:20;100168.91;;;13.84;100.00
29461;BME280;16428;47.836;35.106;2023-04-21T09:59:53;100165.59;;;13.88;100.00
29461;BME280;16428;47.836;35.106;2023-04-21T10:02:24;100162.03;;;13.94;100.00
29461;BME280;16428;47.836;35.106;2023-04-21T10:04:53;100164.31;;;14.04;100.00
29461;BME280;16428;47.836;35.106;2023-04-21T10:07:21;100163.47;;;13.90;100.00
29461;BME280;16428;47.836;35.106;2023-04-21T10:09:53;100167.25;;;13.89;100.00
29461;BME280;16428;47.836;35.106;2023-04-21T10:12:24;100164.31;;;13.97;100.00
29461;BME280;16428;47.836;35.106;2023-04-21T10:14:55;100163.63;;;14.08;100.00
29461;BME280;16428;47.836;35.106;2023-04-21T10:17:24;100171.09;;;14.20;100.00
29461;BME280;16428;47.836;35.106;2023-04-21T10:19:54;100173.44;;;13.96;100.00
29461;BME280;16428;47.836;35.106;2023-04-21T10:22:29;100168.03;;;13.96;100.00
29461;BME280;16428;47.836;35.106;2023-04-21T10:24:59;100169.88;;;14.16;100.00
29461;BME280;16428;47.836;35.106;2023-04-21T10:27:34;100167.16;;;14.16;100.00
29461;BME280;16428;47.836;35.106;2023-04-21T10:30:21;100163.63;;;14.15;100.00
29461;BME280;16428;47.836;35.106;2023-04-21T10:33:01;100157.16;;;14.23;100.00
29461;BME280;16428;47.836;35.106;2023-04-21T10:36:00;100158.75;;;14.37;100.00
29461;BME280;16428;47.836;35.106;2023-04-21T10:38:34;100162.91;;;14.46;100.00
29461;BME280;16428;47.836;35.106;2023-04-21T10:41:29;100161.53;;;14.68;100.00
29461;BME280;16428;47.836;35.106;2023-04-21T10:46:40;100159.53;;;14.89;100.00
29461;BME280;16428;47.836;35.106;2023-04-21T10:54:25;100161.41;;;15.13;100.00
29461;BME280;16428;47.836;35.106;2023-04-21T10:56:57;100163.94;;;15.39;100.00
29461;BME280;16428;47.836;35.106;2023-04-21T10:59:26;100160.38;;;15.64;100.00
29461;BME280;16428;47.836;35.106;2023-04-21T11:01:53;100165.13;;;15.68;100.00
29461;BME280;16428;47.836;35.106;2023-04-21T11:04:21;100164.63;;;15.78;100.00
29461;BME280;16428;47.836;35.106;2023-04-21T11:07:24;100165.59;;;15.83;100.00
29461;BME280;16428;47.836;35.106;2023-04-21T11:10:05;100168.09;;;15.85;100.00
29461;BME280;16428;47.836;35.106;2023-04-21T11:12:36;100166.72;;;15.76;100.00
29461;BME280;16428;47.836;35.106;2023-04-21T11:15:07;100168.16;;;15.78;100.00
29461;BME280;16428;47.836;35.106;2023-04-21T11:17:36;100170.94;;;15.90;100.00
29461;BME280;16428;47.836;35.106;2023-04-21T11:20:09;100167.53;;;15.76;100.00
29461;BME280;16428;47.836;35.106;2023-04-21T11:22:37;100162.69;;;15.85;100.00
29461;BME280;16428;47.836;35.106;2023-04-21T11:25:05;100160.81;;;15.86;100.00
29461;BME280;16428;47.836;35.106;2023-04-21T11:27:54;100160.16;;;15.65;100.00
29461;BME280;16428;47.836;35.106;2023-04-21T11:30:32;100164.19;;;15.99;100.00
29461;BME280;16428;47.836;35.106;2023-04-21T11:33:00;100168.16;;;15.97;100.00
29461;BME280;16428;47.836;35.106;2023-04-21T11:35:28;100167.78;;;16.11;100.00
29461;BME280;16428;47.836;35.106;2023-04-21T11:37:57;100161.16;;;16.07;100.00
29461;BME280;16428;47.836;35.106;2023-04-21T11:40:24;100169.72;;;16.23;100.00
29461;BME280;16428;47.836;35.106;2023-04-21T11:42:53;100170.78;;;16.40;100.00
29461;BME280;16428;47.836;35.106;2023-04-21T11:45:20;100171.44;;;16.53;100.00
29461;BME280;16428;47.836;35.106;2023-04-21T11:47:49;100173.22;;;16.60;100.00
29461;BME280;16428;47.836;35.106;2023-04-21T11:50:30;100176.94;;;16.47;100.00
29461;BME280;16428;47.836;35.106;2023-04-21T11:53:01;100179.97;;;16.39;100.00
29461;BME280;16428;47.836;35.106;2023-04-21T11:55:28;100169.13;;;16.39;100.00
29461;BME280;16428;47.836;35.106;2023-04-21T11:57:56;100174.16;;;16.35;100.00
29461;BME280;16428;47.836;35.106;2023-04-21T12:00:28;100175.31;;;16.09;100.00
29461;BME280;16428;47.836;35.106;2023-04-21T12:02:57;100178.78;;;16.16;100.00
29461;BME280;16428;47.836;35.106;2023-04-21T12:05:34;100175.91;;;16.30;100.00
29461;BME280;16428;47.836;35.106;2023-04-21T12:08:02;100178.53;;;16.36;99.88
29461;BME280;16428;47.836;35.106;2023-04-21T12:10:32;100180.44;;;15.99;100.00
29461;BME280;16428;47.836;35.106;2023-04-21T12:13:00;100186.16;;;16.09;100.00
29461;BME280;16428;47.836;35.106;2023-04-21T12:15:29;100188.25;;;16.07;100.00
29461;BME280;16428;47.836;35.106;2023-04-21T12:17:57;100180.25;;;15.76;100.00
29461;BME280;16428;47.836;35.106;2023-04-21T12:20:27;100181.09;;;15.76;100.00
29461;BME280;16428;47.836;35.106;2023-04-21T12:22:55;100178.53;;;15.81;100.00
29461;BME280;16428;47.836;35.106;2023-04-21T12:25:22;100186.69;;;16.00;100.00
29461;BME280;16428;47.836;35.106;2023-04-21T12:27:52;100178.84;;;15.92;100.00
29461;BME280;16428;47.836;35.106;2023-04-21T12:30:20;100175.47;;;15.96;100.00
29461;BME280;16428;47.836;35.106;2023-04-21T12:32:48;100181.56;;;15.92;100.00
29461;BME280;16428;47.836;35.106;2023-04-21T12:35:15;100175.53;;;15.90;100.00
29461;BME280;16428;47.836;35.106;2023-04-21T12:37:43;100178.25;;;15.71;100.00
29461;BME280;16428;47.836;35.106;2023-04-21T12:40:11;100176.72;;;15.75;100.00
29461;BME280;16428;47.836;35.106;2023-04-21T12:42:38;100174.19;;;15.99;100.00
29461;BME280;16428;47.836;35.106;2023-04-21T12:45:06;100175.41;;;16.03;100.00
29461;BME280;16428;47.836;35.106;2023-04-21T12:47:35;100176.28;;;15.97;100.00